sensor_id;sensor_type;location;lat;lon;timestamp;temperature;humidity
52275;DHT22;38228;50.940;4.024;2023-02-02T00:00:33;8.70;99.90
52275;DHT22;38228;50.940;4.024;2023-02-02T00:02:59;8.70;99.90
52275;DHT22;38228;50.940;4.024;2023-02-02T00:05:24;8.70;99.90
52275;DHT22;38228;50.940;4.024;2023-02-02T00:07:50;8.60;99.90
52275;DHT22;38228;50.940;4.024;2023-02-02T00:10:16;8.70;99.90
52275;DHT22;38228;50.940;4.024;2023-02-02T00:12:41;8.70;99.90
52275;DHT22;38228;50.940;4.024;2023-02-02T00:15:07;8.70;99.90
52275;DHT22;38228;50.940;4.024;2023-02-02T00:17:33;8.70;99.90
52275;DHT22;38228;50.940;4.024;2023-02-02T00:19:58;8.70;99.90
52275;DHT22;38228;50.940;4.024;2023-02-02T00:22:24;8.50;99.90
52275;DHT22;38228;50.940;4.024;2023-02-02T00:24:49;8.50;99.90
52275;DHT22;38228;50.940;4.024;2023-02-02T00:27:15;8.50;99.90
52275;DHT22;38228;50.940;4.024;2023-02-02T00:29:40;8.60;99.90
52275;DHT22;38228;50.940;4.024;2023-02-02T00:32:06;8.60;99.90
52275;DHT22;38228;50.940;4.024;2023-02-02T00:34:31;8.60;99.90
52275;DHT22;38228;50.940;4.024;2023-02-02T00:36:57;8.50;99.90
52275;DHT22;38228;50.940;4.024;2023-02-02T00:39:23;8.50;99.90
52275;DHT22;38228;50.940;4.024;2023-02-02T00:41:52;8.60;99.90
52275;DHT22;38228;50.940;4.024;2023-02-02T00:44:17;8.60;99.90
52275;DHT22;38228;50.940;4.024;2023-02-02T00:47:02;8.60;99.90
52275;DHT22;38228;50.940;4.024;2023-02-02T00:49:28;8.60;99.90
52275;DHT22;38228;50.940;4.024;2023-02-02T00:51:53;8.50;99.90
52275;DHT22;38228;50.940;4.024;2023-02-02T00:54:19;8.50;99.90
52275;DHT22;38228;50.940;4.024;2023-02-02T00:56:44;8.50;99.90
52275;DHT22;38228;50.940;4.024;2023-02-02T00:59:10;8.50;99.90
52275;DHT22;38228;50.940;4.024;2023-02-02T01:01:35;8.50;99.90
52275;DHT22;38228;50.940;4.024;2023-02-02T01:04:01;8.60;99.90
52275;DHT22;38228;50.940;4.024;2023-02-02T01:06:27;8.70;99.90
52275;DHT22;38228;50.940;4.024;2023-02-02T01:08:52;8.80;99.90
52275;DHT22;38228;50.940;4.024;2023-02-02T01:11:18;8.70;99.90
52275;DHT22;38228;50.940;4.024;2023-02-02T01:13:43;8.70;99.90
52275;DHT22;38228;50.940;4.024;2023-02-02T01:16:09;8.50;99.90
52275;DHT22;38228;50.940;4.024;2023-02-02T01:18:35;8.50;99.90
52275;DHT22;38228;50.940;4.024;2023-02-02T01:21:05;8.50;99.90
52275;DHT22;38228;50.940;4.024;2023-02-02T01:23:32;8.70;99.90
52275;DHT22;38228;50.940;4.024;2023-02-02T01:25:58;8.70;99.90
52275;DHT22;38228;50.940;4.024;2023-02-02T01:28:25;8.50;99.90
52275;DHT22;38228;50.940;4.024;2023-02-02T01:30:50;8.60;99.90
52275;DHT22;38228;50.940;4.024;2023-02-02T01:33:16;8.60;99.90
52275;DHT22;38228;50.940;4.024;2023-02-02T01:35:49;8.60;99.90
52275;DHT22;38228;50.940;4.024;2023-02-02T01:38:15;8.60;99.90
52275;DHT22;38228;50.940;4.024;2023-02-02T01:40:44;8.70;99.90
52275;DHT22;38228;50.940;4.024;2023-02-02T01:45:56;8.70;99.90
52275;DHT22;38228;50.940;4.024;2023-02-02T01:48:26;8.70;99.90
52275;DHT22;38228;50.940;4.024;2023-02-02T01:50:54;8.60;99.90
52275;DHT22;38228;50.940;4.024;2023-02-02T01:53:20;8.60;99.90
52275;DHT22;38228;50.940;4.024;2023-02-02T01:55:47;8.60;99.90
52275;DHT22;38228;50.940;4.024;2023-02-02T01:58:24;8.70;99.90
52275;DHT22;38228;50.940;4.024;2023-02-02T02:00:51;8.80;99.90
52275;DHT22;38228;50.940;4.024;2023-02-02T02:03:18;8.70;99.90
52275;DHT22;38228;50.940;4.024;2023-02-02T02:05:46;8.70;99.90
52275;DHT22;38228;50.940;4.024;2023-02-02T02:10:45;8.70;99.90
52275;DHT22;38228;50.940;4.024;2023-02-02T02:13:10;8.70;99.90
52275;DHT22;38228;50.940;4.024;2023-02-02T02:15:59;8.70;99.90
52275;DHT22;38228;50.940;4.024;2023-02-02T02:21:34;8.70;99.90
52275;DHT22;38228;50.940;4.024;2023-02-02T02:42:16;8.60;99.90
52275;DHT22;38228;50.940;4.024;2023-02-02T02:44:43;8.60;99.90
52275;DHT22;38228;50.940;4.024;2023-02-02T02:47:09;8.60;99.90
52275;DHT22;38228;50.940;4.024;2023-02-02T02:49:44;8.70;99.90
52275;DHT22;38228;50.940;4.024;2023-02-02T02:52:10;8.80;99.90
52275;DHT22;38228;50.940;4.024;2023-02-02T02:54:48;8.70;99.90
52275;DHT22;38228;50.940;4.024;2023-02-02T03:00:41;8.60;99.90
52275;DHT22;38228;50.940;4.024;2023-02-02T03:05:20;8.60;99.90
52275;DHT22;38228;50.940;4.024;2023-02-02T03:08:00;8.60;99.90
52275;DHT22;38228;50.940;4.024;2023-02-02T03:10:27;8.50;99.90
52275;DHT22;38228;50.940;4.024;2023-02-02T03:12:54;8.50;99.90
52275;DHT22;38228;50.940;4.024;2023-02-02T03:15:20;8.50;99.90
52275;DHT22;38228;50.940;4.024;2023-02-02T03:17:46;8.50;99.90
52275;DHT22;38228;50.940;4.024;2023-02-02T03:20:13;8.50;99.90
52275;DHT22;38228;50.940;4.024;2023-02-02T03:22:39;8.70;99.90
52275;DHT22;38228;50.940;4.024;2023-02-02T03:25:05;8.70;99.90
52275;DHT22;38228;50.940;4.024;2023-02-02T03:27:31;8.70;99.90
52275;DHT22;38228;50.940;4.024;2023-02-02T03:29:56;8.70;99.90
52275;DHT22;38228;50.940;4.024;2023-02-02T03:32:22;8.70;99.90
52275;DHT22;38228;50.940;4.024;2023-02-02T03:34:48;8.60;99.90
52275;DHT22;38228;50.940;4.024;2023-02-02T03:37:13;8.60;99.90
52275;DHT22;38228;50.940;4.024;2023-02-02T03:39:39;8.50;99.90
52275;DHT22;38228;50.940;4.024;2023-02-02T03:42:04;8.60;99.90
52275;DHT22;38228;50.940;4.024;2023-02-02T03:44:30;8.60;99.90
52275;DHT22;38228;50.940;4.024;2023-02-02T03:46:55;8.60;99.90
52275;DHT22;38228;50.940;4.024;2023-02-02T03:49:21;8.60;99.90
52275;DHT22;38228;50.940;4.024;2023-02-02T03:51:47;8.60;99.90
52275;DHT22;38228;50.940;4.024;2023-02-02T03:54:13;8.60;99.90
52275;DHT22;38228;50.940;4.024;2023-02-02T03:56:38;8.70;99.90
52275;DHT22;38228;50.940;4.024;2023-02-02T03:59:04;8.70;99.90
52275;DHT22;38228;50.940;4.024;2023-02-02T04:01:30;8.60;99.90
52275;DHT22;38228;50.940;4.024;2023-02-02T04:03:56;8.60;99.90
52275;DHT22;38228;50.940;4.024;2023-02-02T04:06:22;8.60;99.90
52275;DHT22;38228;50.940;4.024;2023-02-02T04:08:48;8.60;99.90
52275;DHT22;38228;50.940;4.024;2023-02-02T04:11:14;8.40;99.90
52275;DHT22;38228;50.940;4.024;2023-02-02T04:13:39;8.50;99.90
52275;DHT22;38228;50.940;4.024;2023-02-02T04:16:07;8.60;99.90
52275;DHT22;38228;50.940;4.024;2023-02-02T04:18:33;8.50;99.90
52275;DHT22;38228;50.940;4.024;2023-02-02T04:20:59;8.60;99.90
52275;DHT22;38228;50.940;4.024;2023-02-02T04:23:25;8.50;99.90
52275;DHT22;38228;50.940;4.024;2023-02-02T04:25:51;8.40;99.90
52275;DHT22;38228;50.940;4.024;2023-02-02T04:28:17;8.60;99.90
52275;DHT22;38228;50.940;4.024;2023-02-02T04:30:43;8.40;99.90
52275;DHT22;38228;50.940;4.024;2023-02-02T04:33:08;8.60;99.90
52275;DHT22;38228;50.940;4.024;2023-02-02T04:35:34;8.50;99.90
52275;DHT22;38228;50.940;4.024;2023-02-02T04:38:00;8.70;99.90
52275;DHT22;38228;50.940;4.024;2023-02-02T04:40:25;8.80;99.90
52275;DHT22;38228;50.940;4.024;2023-02-02T04:42:51;8.70;99.90
52275;DHT22;38228;50.940;4.024;2023-02-02T04:45:16;8.80;99.90
52275;DHT22;38228;50.940;4.024;2023-02-02T04:47:42;8.80;99.90
52275;DHT22;38228;50.940;4.024;2023-02-02T04:50:08;8.80;99.90
52275;DHT22;38228;50.940;4.024;2023-02-02T04:52:34;8.70;99.90
52275;DHT22;38228;50.940;4.024;2023-02-02T04:54:59;8.70;99.90
52275;DHT22;38228;50.940;4.024;2023-02-02T04:57:25;8.80;99.90
52275;DHT22;38228;50.940;4.024;2023-02-02T04:59:51;8.90;99.90
52275;DHT22;38228;50.940;4.024;2023-02-02T05:02:16;8.80;99.90
52275;DHT22;38228;50.940;4.024;2023-02-02T05:04:42;8.90;99.90
52275;DHT22;38228;50.940;4.024;2023-02-02T05:07:08;8.80;99.90
52275;DHT22;38228;50.940;4.024;2023-02-02T05:09:33;8.80;99.90
52275;DHT22;38228;50.940;4.024;2023-02-02T05:12:02;8.70;99.90
52275;DHT22;38228;50.940;4.024;2023-02-02T05:14:27;8.80;99.90
52275;DHT22;38228;50.940;4.024;2023-02-02T05:16:53;8.80;99.90
52275;DHT22;38228;50.940;4.024;2023-02-02T05:19:18;8.70;99.90
52275;DHT22;38228;50.940;4.024;2023-02-02T05:21:44;8.60;99.90
52275;DHT22;38228;50.940;4.024;2023-02-02T05:24:12;8.50;99.90
52275;DHT22;38228;50.940;4.024;2023-02-02T05:26:37;8.60;99.90
52275;DHT22;38228;50.940;4.024;2023-02-02T05:29:03;8.50;99.90
52275;DHT22;38228;50.940;4.024;2023-02-02T05:31:31;8.50;99.90
52275;DHT22;38228;50.940;4.024;2023-02-02T05:33:57;8.40;99.90
52275;DHT22;38228;50.940;4.024;2023-02-02T05:36:22;8.50;99.90
52275;DHT22;38228;50.940;4.024;2023-02-02T05:38:48;8.50;99.90
52275;DHT22;38228;50.940;4.024;2023-02-02T05:41:13;8.40;99.90
52275;DHT22;38228;50.940;4.024;2023-02-02T05:43:39;8.40;99.90
52275;DHT22;38228;50.940;4.024;2023-02-02T05:46:08;8.50;99.90
52275;DHT22;38228;50.940;4.024;2023-02-02T05:48:33;8.50;99.90
52275;DHT22;38228;50.940;4.024;2023-02-02T05:53:26;8.40;99.90
52275;DHT22;38228;50.940;4.024;2023-02-02T05:55:51;8.40;99.90
52275;DHT22;38228;50.940;4.024;2023-02-02T05:58:17;8.50;99.90
52275;DHT22;38228;50.940;4.024;2023-02-02T06:00:42;8.40;99.90
52275;DHT22;38228;50.940;4.024;2023-02-02T06:03:08;8.40;99.90
52275;DHT22;38228;50.940;4.024;2023-02-02T06:05:33;8.50;99.90
52275;DHT22;38228;50.940;4.024;2023-02-02T06:07:59;8.60;99.90
52275;DHT22;38228;50.940;4.024;2023-02-02T06:10:24;8.60;99.90
52275;DHT22;38228;50.940;4.024;2023-02-02T06:12:50;8.50;99.90
52275;DHT22;38228;50.940;4.024;2023-02-02T06:15:16;8.50;99.90
52275;DHT22;38228;50.940;4.024;2023-02-02T06:17:41;8.50;99.90
52275;DHT22;38228;50.940;4.024;2023-02-02T06:20:07;8.60;99.90
52275;DHT22;38228;50.940;4.024;2023-02-02T06:22:32;8.50;99.90
52275;DHT22;38228;50.940;4.024;2023-02-02T06:24:58;8.60;99.90
52275;DHT22;38228;50.940;4.024;2023-02-02T06:27:24;8.60;99.90
52275;DHT22;38228;50.940;4.024;2023-02-02T06:29:49;8.50;99.90
52275;DHT22;38228;50.940;4.024;2023-02-02T06:32:15;8.50;99.90
52275;DHT22;38228;50.940;4.024;2023-02-02T06:34:40;8.50;99.90
52275;DHT22;38228;50.940;4.024;2023-02-02T06:37:06;8.50;99.90
52275;DHT22;38228;50.940;4.024;2023-02-02T06:39:32;8.50;99.90
52275;DHT22;38228;50.940;4.024;2023-02-02T06:41:57;8.40;99.90
52275;DHT22;38228;50.940;4.024;2023-02-02T06:44:23;8.50;99.90
52275;DHT22;38228;50.940;4.024;2023-02-02T06:46:48;8.40;99.90
52275;DHT22;38228;50.940;4.024;2023-02-02T06:49:14;8.50;99.90
52275;DHT22;38228;50.940;4.024;2023-02-02T06:51:39;8.50;99.90
52275;DHT22;38228;50.940;4.024;2023-02-02T06:54:05;8.60;99.90
52275;DHT22;38228;50.940;4.024;2023-02-02T06:56:31;8.50;99.90
52275;DHT22;38228;50.940;4.024;2023-02-02T06:58:56;8.50;99.90
52275;DHT22;38228;50.940;4.024;2023-02-02T07:01:22;8.40;99.90
52275;DHT22;38228;50.940;4.024;2023-02-02T07:03:48;8.40;99.90
52275;DHT22;38228;50.940;4.024;2023-02-02T07:06:17;8.50;99.90
52275;DHT22;38228;50.940;4.024;2023-02-02T07:08:44;8.60;99.90
52275;DHT22;38228;50.940;4.024;2023-02-02T07:11:10;8.60;99.90
52275;DHT22;38228;50.940;4.024;2023-02-02T07:13:35;8.60;99.90
52275;DHT22;38228;50.940;4.024;2023-02-02T07:16:02;8.60;99.90
52275;DHT22;38228;50.940;4.024;2023-02-02T07:18:27;8.60;99.90
52275;DHT22;38228;50.940;4.024;2023-02-02T07:20:53;8.70;99.90
52275;DHT22;38228;50.940;4.024;2023-02-02T07:23:19;8.80;99.90
52275;DHT22;38228;50.940;4.024;2023-02-02T07:25:44;8.60;99.90
52275;DHT22;38228;50.940;4.024;2023-02-02T07:28:10;8.50;99.90
52275;DHT22;38228;50.940;4.024;2023-02-02T07:30:35;8.50;99.90
52275;DHT22;38228;50.940;4.024;2023-02-02T07:33:01;8.50;99.90
52275;DHT22;38228;50.940;4.024;2023-02-02T07:35:26;8.50;99.90
52275;DHT22;38228;50.940;4.024;2023-02-02T07:37:52;8.50;99.90
52275;DHT22;38228;50.940;4.024;2023-02-02T07:40:18;8.60;99.90
52275;DHT22;38228;50.940;4.024;2023-02-02T07:42:46;8.70;99.90
52275;DHT22;38228;50.940;4.024;2023-02-02T07:45:13;8.80;99.90
52275;DHT22;38228;50.940;4.024;2023-02-02T07:47:38;8.80;99.90
52275;DHT22;38228;50.940;4.024;2023-02-02T07:50:04;8.70;99.90
52275;DHT22;38228;50.940;4.024;2023-02-02T07:52:30;8.60;99.90
52275;DHT22;38228;50.940;4.024;2023-02-02T07:54:55;8.60;99.90
52275;DHT22;38228;50.940;4.024;2023-02-02T07:57:22;8.70;99.90
52275;DHT22;38228;50.940;4.024;2023-02-02T07:59:47;8.80;99.90
52275;DHT22;38228;50.940;4.024;2023-02-02T08:02:15;8.80;99.90
52275;DHT22;38228;50.940;4.024;2023-02-02T08:04:40;8.80;99.90
52275;DHT22;38228;50.940;4.024;2023-02-02T08:07:06;8.90;99.90
52275;DHT22;38228;50.940;4.024;2023-02-02T08:09:31;8.90;99.90
52275;DHT22;38228;50.940;4.024;2023-02-02T08:11:57;9.00;99.90
52275;DHT22;38228;50.940;4.024;2023-02-02T08:14:26;9.00;99.90
52275;DHT22;38228;50.940;4.024;2023-02-02T08:16:51;8.90;99.90
52275;DHT22;38228;50.940;4.024;2023-02-02T08:19:17;8.90;99.90
52275;DHT22;38228;50.940;4.024;2023-02-02T08:21:42;8.80;99.90
52275;DHT22;38228;50.940;4.024;2023-02-02T08:24:08;8.80;99.90
52275;DHT22;38228;50.940;4.024;2023-02-02T08:26:34;8.90;99.90
52275;DHT22;38228;50.940;4.024;2023-02-02T08:29:02;8.90;99.90
52275;DHT22;38228;50.940;4.024;2023-02-02T08:31:32;8.80;99.90
52275;DHT22;38228;50.940;4.024;2023-02-02T08:33:58;8.90;99.90
52275;DHT22;38228;50.940;4.024;2023-02-02T08:36:25;8.90;99.90
52275;DHT22;38228;50.940;4.024;2023-02-02T08:38:51;8.80;99.90
52275;DHT22;38228;50.940;4.024;2023-02-02T08:41:18;8.70;99.90
52275;DHT22;38228;50.940;4.024;2023-02-02T08:43:44;8.70;99.90
52275;DHT22;38228;50.940;4.024;2023-02-02T08:46:11;8.70;99.90
52275;DHT22;38228;50.940;4.024;2023-02-02T08:48:37;8.80;99.90
52275;DHT22;38228;50.940;4.024;2023-02-02T08:51:03;8.80;99.90
52275;DHT22;38228;50.940;4.024;2023-02-02T08:53:29;8.80;99.90
52275;DHT22;38228;50.940;4.024;2023-02-02T08:56:01;8.70;99.90
52275;DHT22;38228;50.940;4.024;2023-02-02T08:58:28;8.70;99.90
52275;DHT22;38228;50.940;4.024;2023-02-02T09:00:54;8.80;99.90
52275;DHT22;38228;50.940;4.024;2023-02-02T09:03:19;8.80;99.90
52275;DHT22;38228;50.940;4.024;2023-02-02T09:05:45;8.90;99.90
52275;DHT22;38228;50.940;4.024;2023-02-02T09:08:11;9.00;99.90
52275;DHT22;38228;50.940;4.024;2023-02-02T09:10:37;9.00;99.90
52275;DHT22;38228;50.940;4.024;2023-02-02T09:13:02;9.10;99.90
52275;DHT22;38228;50.940;4.024;2023-02-02T09:15:28;9.10;99.90
52275;DHT22;38228;50.940;4.024;2023-02-02T09:17:54;9.20;99.90
52275;DHT22;38228;50.940;4.024;2023-02-02T09:20:19;9.40;99.90
52275;DHT22;38228;50.940;4.024;2023-02-02T09:22:45;9.30;99.90
52275;DHT22;38228;50.940;4.024;2023-02-02T09:25:10;9.30;99.90
52275;DHT22;38228;50.940;4.024;2023-02-02T09:27:36;9.20;99.90
52275;DHT22;38228;50.940;4.024;2023-02-02T09:30:02;9.30;99.90
52275;DHT22;38228;50.940;4.024;2023-02-02T09:32:27;9.20;99.90
52275;DHT22;38228;50.940;4.024;2023-02-02T09:34:53;9.20;99.90
52275;DHT22;38228;50.940;4.024;2023-02-02T09:37:18;9.10;99.90
52275;DHT22;38228;50.940;4.024;2023-02-02T09:39:44;9.20;99.90
52275;DHT22;38228;50.940;4.024;2023-02-02T09:42:17;9.30;99.90
52275;DHT22;38228;50.940;4.024;2023-02-02T09:44:55;9.30;99.90
52275;DHT22;38228;50.940;4.024;2023-02-02T09:47:29;9.40;99.90
52275;DHT22;38228;50.940;4.024;2023-02-02T09:50:01;9.50;99.90
52275;DHT22;38228;50.940;4.024;2023-02-02T09:54:56;9.40;99.90
52275;DHT22;38228;50.940;4.024;2023-02-02T09:57:28;9.50;99.90
52275;DHT22;38228;50.940;4.024;2023-02-02T09:59:55;9.50;99.90
52275;DHT22;38228;50.940;4.024;2023-02-02T10:02:30;9.60;99.90
52275;DHT22;38228;50.940;4.024;2023-02-02T10:05:01;9.60;99.90
52275;DHT22;38228;50.940;4.024;2023-02-02T10:07:36;9.60;99.90
52275;DHT22;38228;50.940;4.024;2023-02-02T10:10:17;9.60;99.90
52275;DHT22;38228;50.940;4.024;2023-02-02T10:16:14;9.70;99.90
52275;DHT22;38228;50.940;4.024;2023-02-02T10:18:10;9.60;99.90
52275;DHT22;38228;50.940;4.024;2023-02-02T10:20:41;9.70;99.90
52275;DHT22;38228;50.940;4.024;2023-02-02T10:23:32;9.80;99.90
52275;DHT22;38228;50.940;4.024;2023-02-02T10:28:43;9.90;99.90
52275;DHT22;38228;50.940;4.024;2023-02-02T10:31:55;10.00;99.90
52275;DHT22;38228;50.940;4.024;2023-02-02T10:34:00;9.90;99.90
52275;DHT22;38228;50.940;4.024;2023-02-02T10:44:50;10.20;99.90
52275;DHT22;38228;50.940;4.024;2023-02-02T10:47:28;10.20;99.90
52275;DHT22;38228;50.940;4.024;2023-02-02T10:49:59;10.20;99.90
52275;DHT22;38228;50.940;4.024;2023-02-02T10:52:33;10.30;99.90
52275;DHT22;38228;50.940;4.024;2023-02-02T11:00:25;10.30;99.90
52275;DHT22;38228;50.940;4.024;2023-02-02T11:02:57;10.20;99.90
52275;DHT22;38228;50.940;4.024;2023-02-02T11:05:26;10.40;99.90
52275;DHT22;38228;50.940;4.024;2023-02-02T11:11:16;10.50;99.90
52275;DHT22;38228;50.940;4.024;2023-02-02T11:13:46;10.60;99.90
52275;DHT22;38228;50.940;4.024;2023-02-02T11:18:38;10.80;99.90
52275;DHT22;38228;50.940;4.024;2023-02-02T11:21:14;10.90;99.90
52275;DHT22;38228;50.940;4.024;2023-02-02T11:23:49;11.10;99.90
52275;DHT22;38228;50.940;4.024;2023-02-02T11:26:15;11.30;99.90
52275;DHT22;38228;50.940;4.024;2023-02-02T11:28:41;11.10;99.90
52275;DHT22;38228;50.940;4.024;2023-02-02T11:31:07;11.00;99.90
52275;DHT22;38228;50.940;4.024;2023-02-02T11:33:34;11.00;99.90
52275;DHT22;38228;50.940;4.024;2023-02-02T11:36:01;11.00;99.90
52275;DHT22;38228;50.940;4.024;2023-02-02T11:38:27;11.00;99.90
52275;DHT22;38228;50.940;4.024;2023-02-02T11:40:57;10.90;99.90
52275;DHT22;38228;50.940;4.024;2023-02-02T11:43:35;10.90;99.90
52275;DHT22;38228;50.940;4.024;2023-02-02T11:46:27;10.80;99.90
52275;DHT22;38228;50.940;4.024;2023-02-02T11:51:25;11.10;99.90
52275;DHT22;38228;50.940;4.024;2023-02-02T11:53:59;11.30;99.90
52275;DHT22;38228;50.940;4.024;2023-02-02T11:56:25;11.40;99.90
52275;DHT22;38228;50.940;4.024;2023-02-02T11:58:55;11.20;99.90
52275;DHT22;38228;50.940;4.024;2023-02-02T12:01:24;11.20;99.90
52275;DHT22;38228;50.940;4.024;2023-02-02T12:03:50;11.00;99.90
52275;DHT22;38228;50.940;4.024;2023-02-02T12:06:17;10.90;99.90
52275;DHT22;38228;50.940;4.024;2023-02-02T12:08:44;10.80;99.90
52275;DHT22;38228;50.940;4.024;2023-02-02T12:11:09;10.70;99.90
52275;DHT22;38228;50.940;4.024;2023-02-02T12:29:05;11.20;99.90
52275;DHT22;38228;50.940;4.024;2023-02-02T12:31:36;11.20;99.90
52275;DHT22;38228;50.940;4.024;2023-02-02T12:44:41;11.20;99.90
52275;DHT22;38228;50.940;4.024;2023-02-02T12:47:18;11.20;99.90
52275;DHT22;38228;50.940;4.024;2023-02-02T12:52:31;11.10;99.90
52275;DHT22;38228;50.940;4.024;2023-02-02T13:08:02;11.30;99.90
52275;DHT22;38228;50.940;4.024;2023-02-02T13:12:59;11.30;99.90
52275;DHT22;38228;50.940;4.024;2023-02-02T13:15:31;11.20;99.90
52275;DHT22;38228;50.940;4.024;2023-02-02T13:17:59;11.20;99.90
52275;DHT22;38228;50.940;4.024;2023-02-02T13:22:55;11.40;99.90
52275;DHT22;38228;50.940;4.024;2023-02-02T13:25:24;11.40;99.90
52275;DHT22;38228;50.940;4.024;2023-02-02T13:27:50;11.40;99.90
52275;DHT22;38228;50.940;4.024;2023-02-02T13:30:30;11.30;99.90
52275;DHT22;38228;50.940;4.024;2023-02-02T13:33:42;11.50;99.90
52275;DHT22;38228;50.940;4.024;2023-02-02T13:35:46;11.60;99.90
52275;DHT22;38228;50.940;4.024;2023-02-02T13:38:22;11.50;99.90
52275;DHT22;38228;50.940;4.024;2023-02-02T13:40:48;11.70;99.90
52275;DHT22;38228;50.940;4.024;2023-02-02T13:48:49;11.60;99.90
52275;DHT22;38228;50.940;4.024;2023-02-02T14:01:33;11.40;99.90
52275;DHT22;38228;50.940;4.024;2023-02-02T14:03:59;11.40;99.90
52275;DHT22;38228;50.940;4.024;2023-02-02T14:06:25;11.30;99.90
52275;DHT22;38228;50.940;4.024;2023-02-02T14:08:55;11.10;99.90
52275;DHT22;38228;50.940;4.024;2023-02-02T14:11:30;10.90;99.90
52275;DHT22;38228;50.940;4.024;2023-02-02T14:13:57;11.00;99.90
52275;DHT22;38228;50.940;4.024;2023-02-02T14:16:43;11.00;99.90
52275;DHT22;38228;50.940;4.024;2023-02-02T14:19:45;10.90;99.90
52275;DHT22;38228;50.940;4.024;2023-02-02T14:27:01;11.00;99.90
52275;DHT22;38228;50.940;4.024;2023-02-02T14:34:25;11.20;99.90
52275;DHT22;38228;50.940;4.024;2023-02-02T14:39:26;11.00;99.90
52275;DHT22;38228;50.940;4.024;2023-02-02T14:42:03;11.00;99.90
52275;DHT22;38228;50.940;4.024;2023-02-02T14:50:13;10.90;99.90
52275;DHT22;38228;50.940;4.024;2023-02-02T14:52:40;10.80;99.90
52275;DHT22;38228;50.940;4.024;2023-02-02T14:55:15;10.80;99.90
52275;DHT22;38228;50.940;4.024;2023-02-02T14:57:41;10.90;99.90
52275;DHT22;38228;50.940;4.024;2023-02-02T15:00:19;11.10;99.90
52275;DHT22;38228;50.940;4.024;2023-02-02T15:02:45;11.10;99.90
52275;DHT22;38228;50.940;4.024;2023-02-02T15:08:05;11.30;99.90
52275;DHT22;38228;50.940;4.024;2023-02-02T15:13:12;11.40;99.90
52275;DHT22;38228;50.940;4.024;2023-02-02T15:15:40;11.30;99.90
52275;DHT22;38228;50.940;4.024;2023-02-02T15:18:12;11.40;99.90
52275;DHT22;38228;50.940;4.024;2023-02-02T15:20:39;11.40;99.90
52275;DHT22;38228;50.940;4.024;2023-02-02T15:26:05;11.30;99.90
52275;DHT22;38228;50.940;4.024;2023-02-02T15:31:17;11.10;99.90
52275;DHT22;38228;50.940;4.024;2023-02-02T15:36:34;11.00;99.90
52275;DHT22;38228;50.940;4.024;2023-02-02T15:39:03;11.00;99.90
52275;DHT22;38228;50.940;4.024;2023-02-02T15:41:33;11.00;99.90
52275;DHT22;38228;50.940;4.024;2023-02-02T15:44:00;11.10;99.90
52275;DHT22;38228;50.940;4.024;2023-02-02T15:46:27;11.00;99.90
52275;DHT22;38228;50.940;4.024;2023-02-02T15:51:38;11.20;99.90
52275;DHT22;38228;50.940;4.024;2023-02-02T15:54:19;11.10;99.90
52275;DHT22;38228;50.940;4.024;2023-02-02T15:56:46;10.90;99.90
52275;DHT22;38228;50.940;4.024;2023-02-02T15:59:19;10.80;99.90
52275;DHT22;38228;50.940;4.024;2023-02-02T16:01:46;10.90;99.90
52275;DHT22;38228;50.940;4.024;2023-02-02T16:04:14;10.90;99.90
52275;DHT22;38228;50.940;4.024;2023-02-02T16:06:41;11.00;99.90
52275;DHT22;38228;50.940;4.024;2023-02-02T16:09:09;10.80;99.90
52275;DHT22;38228;50.940;4.024;2023-02-02T16:11:41;10.70;99.90
52275;DHT22;38228;50.940;4.024;2023-02-02T16:14:12;10.80;99.90
52275;DHT22;38228;50.940;4.024;2023-02-02T16:16:38;10.70;99.90
52275;DHT22;38228;50.940;4.024;2023-02-02T16:21:37;10.60;99.90
52275;DHT22;38228;50.940;4.024;2023-02-02T16:24:06;10.70;99.90
52275;DHT22;38228;50.940;4.024;2023-02-02T16:26:34;10.60;99.90
52275;DHT22;38228;50.940;4.024;2023-02-02T16:29:00;10.60;99.90
52275;DHT22;38228;50.940;4.024;2023-02-02T16:31:26;10.50;99.90
52275;DHT22;38228;50.940;4.024;2023-02-02T16:33:52;10.40;99.90
52275;DHT22;38228;50.940;4.024;2023-02-02T16:38:47;10.30;99.90
52275;DHT22;38228;50.940;4.024;2023-02-02T16:41:23;10.20;99.90
52275;DHT22;38228;50.940;4.024;2023-02-02T16:43:50;10.20;99.90
52275;DHT22;38228;50.940;4.024;2023-02-02T16:46:15;10.20;99.90
52275;DHT22;38228;50.940;4.024;2023-02-02T16:49:01;10.20;99.90
52275;DHT22;38228;50.940;4.024;2023-02-02T16:51:27;10.00;99.90
52275;DHT22;38228;50.940;4.024;2023-02-02T16:58:50;9.90;99.90
52275;DHT22;38228;50.940;4.024;2023-02-02T17:01:29;9.90;99.90
52275;DHT22;38228;50.940;4.024;2023-02-02T17:03:56;9.80;99.90
52275;DHT22;38228;50.940;4.024;2023-02-02T17:06:29;9.70;99.90
52275;DHT22;38228;50.940;4.024;2023-02-02T17:08:56;9.80;99.90
52275;DHT22;38228;50.940;4.024;2023-02-02T17:11:22;9.80;99.90
52275;DHT22;38228;50.940;4.024;2023-02-02T17:13:48;9.90;99.90
52275;DHT22;38228;50.940;4.024;2023-02-02T17:16:19;9.90;99.90
52275;DHT22;38228;50.940;4.024;2023-02-02T17:18:47;9.80;99.90
52275;DHT22;38228;50.940;4.024;2023-02-02T17:21:14;9.80;99.90
52275;DHT22;38228;50.940;4.024;2023-02-02T17:23:40;9.60;99.90
52275;DHT22;38228;50.940;4.024;2023-02-02T17:26:06;9.60;99.90
52275;DHT22;38228;50.940;4.024;2023-02-02T17:28:32;9.60;99.90
52275;DHT22;38228;50.940;4.024;2023-02-02T17:31:02;9.70;99.90
52275;DHT22;38228;50.940;4.024;2023-02-02T17:33:30;9.70;99.90
52275;DHT22;38228;50.940;4.024;2023-02-02T17:35:57;9.80;99.90
52275;DHT22;38228;50.940;4.024;2023-02-02T17:38:23;9.80;99.90
52275;DHT22;38228;50.940;4.024;2023-02-02T17:40:49;9.70;99.90
52275;DHT22;38228;50.940;4.024;2023-02-02T17:43:14;9.80;99.90
52275;DHT22;38228;50.940;4.024;2023-02-02T17:45:40;9.80;99.90
52275;DHT22;38228;50.940;4.024;2023-02-02T17:48:08;9.80;99.90
52275;DHT22;38228;50.940;4.024;2023-02-02T17:50:34;9.80;99.90
52275;DHT22;38228;50.940;4.024;2023-02-02T17:53:01;9.80;99.90
52275;DHT22;38228;50.940;4.024;2023-02-02T17:55:29;9.90;99.90
52275;DHT22;38228;50.940;4.024;2023-02-02T17:57:55;9.90;99.90
52275;DHT22;38228;50.940;4.024;2023-02-02T18:00:22;9.90;99.90
52275;DHT22;38228;50.940;4.024;2023-02-02T18:02:48;9.90;99.90
52275;DHT22;38228;50.940;4.024;2023-02-02T18:05:14;9.90;99.90
52275;DHT22;38228;50.940;4.024;2023-02-02T18:07:41;9.90;99.90
52275;DHT22;38228;50.940;4.024;2023-02-02T18:10:08;9.90;99.90
52275;DHT22;38228;50.940;4.024;2023-02-02T18:12:34;9.90;99.90
52275;DHT22;38228;50.940;4.024;2023-02-02T18:15:00;9.90;99.90
52275;DHT22;38228;50.940;4.024;2023-02-02T18:17:26;9.90;99.90
52275;DHT22;38228;50.940;4.024;2023-02-02T18:19:52;9.90;99.90
52275;DHT22;38228;50.940;4.024;2023-02-02T18:22:19;9.90;99.90
52275;DHT22;38228;50.940;4.024;2023-02-02T18:24:44;9.90;99.90
52275;DHT22;38228;50.940;4.024;2023-02-02T18:27:10;10.00;99.90
52275;DHT22;38228;50.940;4.024;2023-02-02T18:29:36;10.00;99.90
52275;DHT22;38228;50.940;4.024;2023-02-02T18:32:01;10.00;99.90
52275;DHT22;38228;50.940;4.024;2023-02-02T18:34:27;10.00;99.90
52275;DHT22;38228;50.940;4.024;2023-02-02T18:36:53;9.90;99.90